Redland, Florida
Current Conditions -  °F | °C
As of 3:58 PM on Friday 28 Nov 2014 (Local Time) from KHST Reporting Station
Clear Clear  
Wind Chill: 71°   Ceiling: Unl
Heat Index: 71°   Visibility: 10mi
Dew Point: 51°   Wind: 12mph
Humidity: 50%   Direction: 340°NNW
Pressure: 30.15"   Gusts: NA
Location:  25.5222°N, 80.3827°W
Report Text: KHST 282058Z AUTO 34010KT 10SM CLR 22/11 A3015 RMK AO2 SLP213 T02150108 55008 $
Loading
Personal Weather Stations






























Interactive Weather Map New forecast layout! Learn more

10-Day Weather Forecast

Advertisements
Track Severe Weather on mobile